Weather History for Clermont County, Batavia, OH

Change the Weather History Date:

Sunday, March 2, 2014

  Actual Average (KLUK) Record (KLUK)
Temperature  
Mean Temperature 32 °F -  
Max Temperature 44 °F 52 °F 78 °F (1992)
Min Temperature 19 °F 32 °F 1 °F (1980)
Degree Days  
Heating Degree Days 34    
Moisture  
Dew Point 28 °F    
Average Humidity 92    
Maximum Humidity 100    
Minimum Humidity 61    
Precipitation  
Precipitation 0.21 in - - ()
Sea Level Pressure  
Sea Level Pressure 30.15 in    
Wind  
Wind Speed 7 mph (NNE)    
Max Wind Speed 14 mph    
Max Gust Speed 18 mph    
Visibility 5 miles    
Events Snow    
Averages and records for this station are not official NWS values.
T = Trace of Precipitation, MM = Missing Value Source: NWS Daily Summary

Daily Weather History Graph

Daily Weather History Graph

Search for Another Location

Airport:

Trip Planner

Search our weather history database for the weather conditions in past years. The results will help you decide how hot, cold, wet, or windy it might be!

Date:

Astronomy

Mar. 02, 2014 Rise Set
Actual Time 7:07 AM EST 6:30 PM EST
Civil Twilight 6:41 AM EST 6:57 PM EST
Nautical Twilight 6:10 AM EST 7:28 PM EST
Astronomical Twilight 5:39 AM EST 7:59 PM EST
Moon 7:39 AM EST (3/2) 8:24 PM EST (3/2)
Length of Visible Light 12h 16m
Length of Day
11h 22m
Waxing Crescent, 3% of the Moon is Illuminated
Mar 2
Waxing Crescent
Mar 8
First Quarter
Mar 16
Full
Mar 23
Last Quarter
Mar 30
New

Hourly Weather History & Observations

Time (EST) Temp. Windchill Dew Point Humidity Pressure Visibility Wind Dir Wind Speed Gust Speed Precip Events Conditions
12:17 AM 44.6 °F 39.7 °F 32.0 °F 61% 30.12 in 10.0 mi NNW 9.2 mph - N/A   Overcast
12:38 AM 41.0 °F 33.9 °F 30.2 °F 65% 30.15 in 10.0 mi NNW 12.7 mph 18.4 mph N/A   Overcast
12:57 AM 39.2 °F 31.2 °F 28.4 °F 65% 30.14 in 10.0 mi North 13.8 mph 18.4 mph N/A   Overcast
1:17 AM 37.4 °F 33.8 °F 28.4 °F 70% 30.14 in 10.0 mi North 4.6 mph - N/A   Overcast
1:38 AM 37.4 °F 31.4 °F 28.4 °F 70% 30.14 in 10.0 mi NNE 8.1 mph - N/A   Overcast
1:57 AM 35.6 °F 31.7 °F 28.4 °F 75% 30.12 in 10.0 mi NE 4.6 mph - N/A   Overcast
2:17 AM 35.6 °F 31.7 °F 28.4 °F 75% 30.12 in 10.0 mi NNE 4.6 mph - N/A   Overcast
2:38 AM 35.6 °F 30.7 °F 28.4 °F 75% 30.12 in 10.0 mi North 5.8 mph - N/A   Overcast
2:57 AM 35.6 °F 29.9 °F 28.4 °F 75% 30.12 in 10.0 mi North 6.9 mph - N/A   Overcast
3:17 AM 35.6 °F 29.9 °F 28.4 °F 75% 30.13 in 10.0 mi North 6.9 mph - N/A   Overcast
3:38 AM 33.8 °F 27.0 °F 30.2 °F 87% 30.12 in 5.0 mi NNE 8.1 mph - N/A   Haze
3:57 AM 33.8 °F 27.0 °F 30.2 °F 87% 30.14 in 4.0 mi North 8.1 mph - N/A Snow Light Snow
4:18 AM 32.0 °F 25.6 °F 32.0 °F 100% 30.14 in 3.0 mi NNE 6.9 mph - N/A Snow Light Snow
4:38 AM 32.0 °F 26.4 °F 32.0 °F 100% 30.14 in 2.0 mi North 5.8 mph - N/A   Overcast
4:57 AM 32.0 °F 26.4 °F 32.0 °F 100% 30.12 in 2.0 mi NNE 5.8 mph - N/A Snow Light Snow
5:17 AM 32.0 °F 24.8 °F 32.0 °F 100% 30.11 in 2.0 mi NNE 8.1 mph - N/A   Overcast
5:38 AM 32.0 °F 24.8 °F 32.0 °F 100% 30.11 in 2.0 mi NNE 8.1 mph - N/A   Overcast
5:57 AM 32.0 °F 24.8 °F 32.0 °F 100% 30.11 in 2.0 mi NNE 8.1 mph - N/A Snow Light Snow
6:18 AM 32.0 °F 24.2 °F 32.0 °F 100% 30.12 in 2.0 mi NNE 9.2 mph - 0.01 in Snow Light Snow
6:38 AM 32.0 °F 26.4 °F 32.0 °F 100% 30.13 in 2.5 mi North 5.8 mph - 0.02 in Snow Light Snow
6:57 AM 32.0 °F 26.4 °F 32.0 °F 100% 30.12 in 3.0 mi NNE 5.8 mph - 0.03 in Snow Light Snow
7:18 AM 32.0 °F 26.4 °F 32.0 °F 100% 30.14 in 3.0 mi North 5.8 mph - N/A Snow Light Snow
7:38 AM 32.0 °F 24.8 °F 32.0 °F 100% 30.12 in 3.0 mi NNE 8.1 mph - 0.02 in Snow Light Snow
7:57 AM 32.0 °F 27.5 °F 32.0 °F 100% 30.12 in 5.0 mi NE 4.6 mph - 0.02 in   Overcast
8:18 AM 32.0 °F 26.4 °F 32.0 °F 100% 30.13 in 3.0 mi NNE 5.8 mph - N/A Snow Light Snow
8:38 AM 32.0 °F 24.8 °F 32.0 °F 100% 30.13 in 3.0 mi NNE 8.1 mph - N/A Snow Light Snow
8:57 AM 32.0 °F 25.6 °F 32.0 °F 100% 30.12 in 4.0 mi ENE 6.9 mph - N/A Snow Light Snow
9:18 AM 32.0 °F 26.4 °F 32.0 °F 100% 30.14 in 3.0 mi NNE 5.8 mph - 0.02 in Snow Light Snow
9:38 AM 32.0 °F 25.6 °F 32.0 °F 100% 30.14 in 4.0 mi NNE 6.9 mph - 0.03 in Snow Light Snow
9:57 AM 32.0 °F 25.6 °F 32.0 °F 100% 30.14 in 4.0 mi NNE 6.9 mph - 0.03 in Snow Light Snow
10:18 AM 32.0 °F 26.4 °F 32.0 °F 100% 30.15 in 4.0 mi NNE 5.8 mph - N/A Snow Light Snow
10:37 AM 32.0 °F 28.7 °F 32.0 °F 100% 30.15 in 2.5 mi NNE 3.5 mph - 0.04 in Snow Light Snow
10:57 AM 32.0 °F 25.6 °F 32.0 °F 100% 30.13 in 3.0 mi NNE 6.9 mph - 0.06 in Snow Light Snow
11:18 AM 32.0 °F 26.4 °F 32.0 °F 100% 30.14 in 4.0 mi NE 5.8 mph - 0.01 in Snow Light Snow
11:37 AM 32.0 °F 28.7 °F 32.0 °F 100% 30.15 in 4.0 mi NNE 3.5 mph - 0.03 in Snow Light Snow
11:57 AM 32.0 °F 25.6 °F 32.0 °F 100% 30.15 in 4.0 mi North 6.9 mph - 0.04 in Snow Light Snow
12:18 PM 32.0 °F 27.5 °F 30.2 °F 93% 30.13 in 10.0 mi NE 4.6 mph - N/A   Overcast
12:37 PM 32.0 °F 25.6 °F 30.2 °F 93% 30.13 in 10.0 mi NE 6.9 mph - N/A   Overcast
12:57 PM 32.0 °F 25.6 °F 30.2 °F 93% 30.12 in 7.0 mi NNE 6.9 mph - N/A   Overcast
1:18 PM 30.2 °F 24.3 °F 30.2 °F 100% 30.13 in 7.0 mi NNE 5.8 mph - N/A   Overcast
1:37 PM 30.2 °F 21.3 °F 28.4 °F 93% 30.14 in 10.0 mi NE 10.4 mph - N/A   Overcast
1:57 PM 30.2 °F 23.4 °F 28.4 °F 93% 30.14 in 10.0 mi North 6.9 mph - N/A   Overcast
2:18 PM 28.4 °F 21.2 °F 28.4 °F 100% 30.14 in 10.0 mi North 6.9 mph - N/A   Overcast
2:37 PM 28.4 °F 20.4 °F 26.6 °F 93% 30.14 in 10.0 mi North 8.1 mph - N/A   Overcast
2:57 PM 28.4 °F 22.2 °F 26.6 °F 93% 30.14 in 10.0 mi North 5.8 mph - N/A   Overcast
3:18 PM 28.4 °F 22.2 °F 26.6 °F 93% 30.14 in 10.0 mi North 5.8 mph - N/A   Overcast
3:37 PM 28.4 °F 21.2 °F 26.6 °F 93% 30.14 in 10.0 mi North 6.9 mph - N/A   Overcast
3:57 PM 28.4 °F 23.3 °F 26.6 °F 93% 30.15 in 7.0 mi NNE 4.6 mph - N/A   Overcast
4:18 PM 28.4 °F 23.3 °F 26.6 °F 93% 30.15 in 7.0 mi NNE 4.6 mph - N/A Snow Light Snow
4:37 PM 28.4 °F 22.2 °F 26.6 °F 93% 30.15 in 4.0 mi NNE 5.8 mph - N/A Snow Light Snow
4:57 PM 28.4 °F 21.2 °F 26.6 °F 93% 30.13 in 7.0 mi North 6.9 mph - N/A   Overcast
5:18 PM 28.4 °F 21.2 °F 26.6 °F 93% 30.15 in 7.0 mi North 6.9 mph - N/A   Overcast
5:37 PM 26.6 °F 20.0 °F 24.8 °F 93% 30.15 in 10.0 mi NNE 5.8 mph - N/A   Overcast
5:57 PM 26.6 °F 18.2 °F 24.8 °F 93% 30.15 in 10.0 mi NNE 8.1 mph - N/A   Overcast
6:18 PM 26.6 °F 21.2 °F 24.8 °F 93% 30.17 in 5.0 mi NNE 4.6 mph - N/A Snow Light Snow
6:37 PM 26.6 °F 19.1 °F 24.8 °F 93% 30.17 in 3.0 mi NNE 6.9 mph - 0.01 in Snow Light Snow
6:58 PM 26.6 °F 19.1 °F 23.0 °F 86% 30.17 in 1.8 mi NNE 6.9 mph - 0.01 in Snow Light Snow
7:17 PM 23.0 °F 13.9 °F 23.0 °F 100% 30.17 in 1.2 mi NNE 8.1 mph - N/A Snow Light Snow
7:37 PM 23.0 °F 13.9 °F 21.2 °F 93% 30.17 in 2.5 mi North 8.1 mph - N/A Snow Light Snow
7:58 PM 23.0 °F 14.7 °F 21.2 °F 93% 30.17 in 2.5 mi NNE 6.9 mph - 0.01 in Snow Light Snow
8:17 PM 23.0 °F 17.0 °F 21.2 °F 93% 30.19 in 2.5 mi North 4.6 mph - N/A Snow Light Snow
8:37 PM 23.0 °F 15.8 °F 21.2 °F 93% 30.20 in 5.0 mi North 5.8 mph - 0.01 in Snow Light Snow
8:58 PM 23.0 °F 14.7 °F 21.2 °F 93% 30.20 in 2.5 mi NNE 6.9 mph - 0.01 in Snow Light Snow
9:17 PM 21.2 °F 11.7 °F 19.4 °F 93% 30.21 in 2.5 mi North 8.1 mph - N/A Snow Light Snow
9:37 PM 21.2 °F 13.6 °F 19.4 °F 93% 30.21 in 3.0 mi NNE 5.8 mph - N/A Snow Light Snow
9:58 PM 21.2 °F 11.7 °F 19.4 °F 93% 30.20 in 4.0 mi NNE 8.1 mph - N/A Snow Light Snow
10:17 PM 21.2 °F 12.6 °F 19.4 °F 93% 30.20 in 2.0 mi North 6.9 mph - N/A Snow Light Snow
10:37 PM 21.2 °F 14.9 °F 19.4 °F 93% 30.20 in 2.5 mi NNE 4.6 mph - N/A Snow Light Snow
10:58 PM 21.2 °F 12.6 °F 19.4 °F 93% 30.20 in 4.0 mi North 6.9 mph - N/A Snow Light Snow
11:17 PM 19.4 °F 11.5 °F 17.6 °F 93% 30.21 in 4.0 mi NNE 5.8 mph - N/A Snow Light Snow
11:37 PM 19.4 °F 10.4 °F 17.6 °F 93% 30.23 in 2.0 mi North 6.9 mph - N/A Snow Light Snow
11:58 PM 19.4 °F 10.4 °F 17.6 °F 93% 30.22 in 2.0 mi North 6.9 mph - N/A Snow Light Snow